Weather History for KEWK - October, 2012

Change the Weather History Date:

Friday, October 19, 2012

  Actual Average Record
Temperature  
Mean Temperature 53 °F -  
Max Temperature 62 °F 64 °F 84 °F (2003)
Min Temperature 44 °F 43 °F 15 °F (2013)
Degree Days  
Heating Degree Days 12    
Growing Degree Days 3 (Base 50)    
Moisture  
Dew Point 26 °F    
Average Humidity 36    
Maximum Humidity 53    
Minimum Humidity 26    
Precipitation  
Precipitation 0.00 in - - ()
Sea Level Pressure  
Sea Level Pressure 29.86 in    
Wind  
Wind Speed 16 mph (NW)    
Max Wind Speed 24 mph    
Max Gust Speed 38 mph    
Visibility 10 miles    
Events      
Averages and records for this station are not official NWS values.
T = Trace of Precipitation, MM = Missing Value Source: NWS Daily Summary

Daily Weather History Graph

Daily Weather History Graph

Search for Another Location

Airport or City:

Trip Planner

Search our weather history database for the weather conditions in past years. The results will help you decide how hot, cold, wet, or windy it might be!

Date:

Astronomy

Oct. 19, 2012 Rise Set
Actual Time 7:42 AM CDT 6:45 PM CDT
Civil Twilight 7:15 AM CDT 7:11 PM CDT
Nautical Twilight 6:44 AM CDT 7:42 PM CDT
Astronomical Twilight 6:14 AM CDT 8:12 PM CDT
Moon 12:23 PM CDT (10/19) 10:28 PM CDT (10/19)
Length of Visible Light 11h 56m
Length of Day
11h 03m
Waxing Crescent, 24% of the Moon is Illuminated
Oct 19
Waxing Crescent
Oct 21
First Quarter
Oct 29
Full
Nov 6
Last Quarter
Nov 13
New

Hourly Weather History & Observations

Time (CDT) Temp. Windchill Dew Point Humidity Pressure Visibility Wind Dir Wind Speed Gust Speed Precip Events Conditions
12:15 AM 51.8 °F - 24.8 °F 35% 29.85 in 10.0 mi WNW 13.8 mph - N/A   Clear
12:35 AM 51.8 °F - 24.8 °F 35% 29.84 in 10.0 mi WNW 15.0 mph - N/A   Clear
12:55 AM 51.8 °F - 24.8 °F 35% 29.84 in 10.0 mi WNW 18.4 mph - N/A   Clear
1:15 AM 51.8 °F - 24.8 °F 35% 29.84 in 10.0 mi WNW 18.4 mph 28.8 mph N/A   Clear
1:35 AM 51.8 °F - 24.8 °F 35% 29.84 in 10.0 mi WNW 18.4 mph 26.5 mph N/A   Clear
1:55 AM 51.8 °F - 24.8 °F 35% 29.84 in 10.0 mi WNW 20.7 mph - N/A   Clear
2:15 AM 51.8 °F - 24.8 °F 35% 29.84 in 10.0 mi WNW 18.4 mph 25.3 mph N/A   Clear
2:35 AM 51.8 °F - 24.8 °F 35% 29.84 in 10.0 mi WNW 19.6 mph 25.3 mph N/A   Clear
2:55 AM 50.0 °F - 24.8 °F 37% 29.84 in 10.0 mi WNW 15.0 mph 25.3 mph N/A   Clear
3:15 AM 50.0 °F - 24.8 °F 37% 29.83 in 10.0 mi WNW 17.3 mph 23.0 mph N/A   Clear
3:35 AM 48.2 °F - 24.8 °F 40% 29.83 in 10.0 mi WNW 18.4 mph 24.2 mph N/A   Clear
3:55 AM 48.2 °F - 24.8 °F 40% 29.83 in 10.0 mi NW 19.6 mph 26.5 mph N/A   Clear
4:15 AM 48.2 °F - 23.0 °F 37% 29.84 in 10.0 mi NW 16.1 mph - N/A   Clear
4:35 AM 48.2 °F - 24.8 °F 40% 29.84 in 10.0 mi NW 19.6 mph 26.5 mph N/A   Clear
4:55 AM 48.2 °F - 24.8 °F 40% 29.84 in 10.0 mi NW 19.6 mph 27.6 mph N/A   Clear
5:15 AM 48.2 °F - 24.8 °F 40% 29.84 in 10.0 mi NW 19.6 mph 28.8 mph N/A   Clear
5:35 AM 48.2 °F - 24.8 °F 40% 29.85 in 10.0 mi NW 17.3 mph 25.3 mph N/A   Clear
5:55 AM 46.4 °F 40.1 °F 24.8 °F 43% 29.86 in 10.0 mi WNW 15.0 mph 23.0 mph N/A   Clear
6:15 AM 46.4 °F 40.1 °F 24.8 °F 43% 29.86 in 10.0 mi WNW 15.0 mph - N/A   Clear
6:35 AM 44.6 °F 37.2 °F 23.0 °F 43% 29.86 in 10.0 mi WNW 17.3 mph - N/A   Clear
6:55 AM 44.6 °F 37.2 °F 21.2 °F 39% 29.86 in 10.0 mi WNW 17.3 mph 21.9 mph N/A   Clear
7:15 AM 44.6 °F 36.9 °F 21.2 °F 39% 29.86 in 10.0 mi WNW 18.4 mph 25.3 mph N/A   Clear
7:35 AM 44.6 °F 37.8 °F 21.2 °F 39% 29.86 in 10.0 mi WNW 15.0 mph 18.4 mph N/A   Clear
7:55 AM 44.6 °F 36.9 °F 21.2 °F 39% 29.87 in 10.0 mi WNW 18.4 mph 23.0 mph N/A   Clear
8:15 AM 44.6 °F 37.8 °F 19.4 °F 37% 29.88 in 10.0 mi WNW 15.0 mph - N/A   Clear
8:35 AM 44.6 °F 36.6 °F 19.4 °F 37% 29.88 in 10.0 mi WNW 19.6 mph 26.5 mph N/A   Clear
8:55 AM 44.6 °F 36.9 °F 19.4 °F 37% 29.88 in 10.0 mi WNW 18.4 mph 24.2 mph N/A   Clear
9:15 AM 46.4 °F 39.0 °F 19.4 °F 34% 29.89 in 10.0 mi NW 19.6 mph 27.6 mph N/A   Clear
9:35 AM 48.2 °F - 19.4 °F 32% 29.89 in 10.0 mi NW 21.9 mph 28.8 mph N/A   Clear
9:55 AM 48.2 °F - 21.2 °F 34% 29.89 in 10.0 mi NNW 24.2 mph 31.1 mph N/A   Clear
10:15 AM 50.0 °F - 21.2 °F 32% 29.90 in 10.0 mi NNW 24.2 mph 35.7 mph N/A   Clear
10:35 AM 50.0 °F - 23.0 °F 35% 29.91 in 10.0 mi NW 23.0 mph 38.0 mph N/A   Clear
10:55 AM 51.8 °F - 24.8 °F 35% 29.92 in 10.0 mi NW 21.9 mph 28.8 mph N/A   Clear
11:15 AM 51.8 °F - 26.6 °F 38% 29.91 in 10.0 mi NNW 23.0 mph 29.9 mph N/A   Clear
11:35 AM 53.6 °F - 28.4 °F 38% 29.92 in 10.0 mi NW 24.2 mph 29.9 mph N/A   Clear
11:55 AM 53.6 °F - 28.4 °F 38% 29.92 in 10.0 mi NW 20.7 mph 31.1 mph N/A   Clear
12:15 PM 55.4 °F - 28.4 °F 36% 29.92 in 10.0 mi WNW 21.9 mph 27.6 mph N/A   Clear
12:35 PM 55.4 °F - 28.4 °F 36% 29.91 in 10.0 mi NW 24.2 mph 28.8 mph N/A   Clear
12:55 PM 57.2 °F - 30.2 °F 36% 29.91 in 10.0 mi NW 18.4 mph 31.1 mph N/A   Clear
1:15 PM 57.2 °F - 30.2 °F 36% 29.90 in 10.0 mi NW 20.7 mph 26.5 mph N/A   Clear
1:35 PM 57.2 °F - 30.2 °F 36% 29.90 in 10.0 mi NW 20.7 mph 29.9 mph N/A   Clear
1:55 PM 60.8 °F - 30.2 °F 31% 29.90 in 10.0 mi NW 13.8 mph 23.0 mph N/A   Clear
2:35 PM 60.8 °F - 30.2 °F 31% 29.87 in 10.0 mi WNW 19.6 mph 28.8 mph N/A   Clear
2:55 PM 62.6 °F - 32.0 °F 32% 29.86 in 10.0 mi NW 16.1 mph 23.0 mph N/A   Clear
3:15 PM 62.6 °F - 30.2 °F 30% 29.86 in 10.0 mi NW 19.6 mph 27.6 mph N/A   Clear
3:35 PM 62.6 °F - 32.0 °F 32% 29.86 in 10.0 mi NW 16.1 mph 23.0 mph N/A   Clear
3:55 PM 62.6 °F - 30.2 °F 30% 29.85 in 10.0 mi NW 18.4 mph 23.0 mph N/A   Clear
4:15 PM 62.6 °F - 30.2 °F 30% 29.85 in 10.0 mi NW 17.3 mph - N/A   Clear
4:35 PM 62.6 °F - 28.4 °F 27% 29.85 in 10.0 mi WNW 16.1 mph 27.6 mph N/A   Clear
4:55 PM 62.6 °F - 28.4 °F 27% 29.85 in 10.0 mi NW 13.8 mph 21.9 mph N/A   Clear
5:15 PM 62.6 °F - 28.4 °F 27% 29.85 in 10.0 mi NW 12.7 mph - N/A   Clear
5:35 PM 62.6 °F - 26.6 °F 26% 29.85 in 10.0 mi NW 13.8 mph 20.7 mph N/A   Clear
5:55 PM 62.6 °F - 26.6 °F 26% 29.84 in 10.0 mi NW 11.5 mph - N/A   Clear
6:15 PM 60.8 °F - 26.6 °F 27% 29.84 in 10.0 mi NW 6.9 mph - N/A   Clear
6:35 PM 59.0 °F - 26.6 °F 29% 29.84 in 10.0 mi NW 6.9 mph - N/A   Clear
6:55 PM 55.4 °F - 26.6 °F 33% 29.85 in 10.0 mi Calm Calm - N/A   Clear
7:15 PM 55.4 °F - 24.8 °F 31% 29.85 in 10.0 mi Calm Calm - N/A   Clear
7:35 PM 55.4 °F - 24.8 °F 31% 29.85 in 10.0 mi North 4.6 mph - N/A   Clear
7:55 PM 55.4 °F - 24.8 °F 31% 29.86 in 10.0 mi Calm Calm - N/A   Clear
8:15 PM 53.6 °F - 24.8 °F 33% 29.85 in 10.0 mi Calm Calm - N/A   Clear
8:35 PM 51.8 °F - 24.8 °F 35% 29.85 in 10.0 mi Calm Calm - N/A   Clear
8:55 PM 51.8 °F - 26.6 °F 38% 29.85 in 10.0 mi Calm Calm - N/A   Clear
9:15 PM 51.8 °F - 26.6 °F 38% 29.85 in 10.0 mi Calm Calm - N/A   Clear
9:35 PM 53.6 °F - 24.8 °F 33% 29.85 in 10.0 mi ENE 4.6 mph - N/A   Clear
9:55 PM 53.6 °F - 24.8 °F 33% 29.85 in 10.0 mi East 4.6 mph - N/A   Clear
10:15 PM 53.6 °F - 24.8 °F 33% 29.85 in 10.0 mi East 3.5 mph - N/A   Clear
10:35 PM 46.4 °F 44.3 °F 26.6 °F 46% 29.85 in 10.0 mi SSE 4.6 mph - N/A   Clear
10:55 PM 46.4 °F 43.5 °F 28.4 °F 50% 29.84 in 10.0 mi SSE 5.8 mph - N/A   Clear
11:15 PM 44.6 °F 42.2 °F 28.4 °F 53% 29.84 in 10.0 mi SSE 4.6 mph - N/A   Clear
11:35 PM 46.4 °F 44.3 °F 26.6 °F 46% 29.85 in 10.0 mi SSE 4.6 mph - N/A   Clear
11:55 PM 48.2 °F - 26.6 °F 43% 29.85 in 10.0 mi SE 5.8 mph - N/A   Clear